Time;durP1;ratioP1;P1;durP2;ratioP2;P2;SDS_P1;SDS_P2;PMS_P1;PMS_P2;Temp;Humidity;BMP_temperature;BMP_pressure;BME280_temperature;BME280_humidity;BME280_pressure;Samples;Min_cycle;Max_cycle;Signal;HPM_P1;HPM_P2
2022/09/17 00:01:20;;;;;;;3.85;3.22;;;;;;;13.80;81.10;94659.22;1713093;84;21058;-70
2022/09/17 00:03:56;;;;;;;5.78;3.42;;;;;;;13.80;81.10;94659.22;1712688;84;21012;-70
2022/09/17 00:06:24;;;;;;;9.05;3.50;;;;;;;13.80;81.47;94656.09;1712981;83;21040;-71
2022/09/17 00:08:53;;;;;;;5.97;3.40;;;;;;;13.77;81.67;94646.95;1713110;83;21075;-70
2022/09/17 00:11:28;;;;;;;3.70;2.85;;;;;;;13.76;81.93;94645.25;1712863;84;21079;-70
2022/09/17 00:13:58;;;;;;;5.05;3.35;;;;;;;13.58;82.51;94660.66;1713185;84;21007;-70
2022/09/17 00:16:33;;;;;;;5.45;3.33;;;;;;;13.58;82.51;94660.66;1712996;84;21055;-70
2022/09/17 00:19:00;;;;;;;3.87;3.22;;;;;;;13.52;82.26;94671.07;1713136;84;21051;-70
2022/09/17 00:21:28;;;;;;;4.20;3.15;;;;;;;13.49;82.70;94680.95;1713109;84;21565;-70
2022/09/17 00:23:58;;;;;;;4.80;3.83;;;;;;;13.49;82.35;94684.47;1713230;84;20984;-70
2022/09/17 00:26:27;;;;;;;6.62;3.87;;;;;;;13.49;82.32;94680.48;1713089;83;21075;-70
2022/09/17 00:28:55;;;;;;;5.80;3.70;;;;;;;13.61;82.28;94676.44;1713257;84;21043;-70
2022/09/17 00:31:23;;;;;;;5.97;4.22;;;;;;;13.62;81.95;94668.40;1713047;83;21067;-70
2022/09/17 00:33:51;;;;;;;10.80;3.42;;;;;;;13.62;81.95;94668.40;1711658;84;21094;-70
2022/09/17 00:36:19;;;;;;;8.85;3.60;;;;;;;13.59;82.17;94667.22;1705232;84;21040;-70
2022/09/17 00:38:51;;;;;;;5.40;3.45;;;;;;;13.59;82.17;94667.22;1705506;83;21000;-70
2022/09/17 00:41:20;;;;;;;4.95;3.35;;;;;;;13.57;82.29;94677.02;1705369;84;21538;-70
2022/09/17 00:43:57;;;;;;;6.40;3.20;;;;;;;13.49;81.90;94675.19;1705467;83;20997;-70
2022/09/17 00:46:42;;;;;;;4.53;3.05;;;;;;;13.48;82.50;94666.86;1705085;84;21031;-70
2022/09/17 00:49:16;;;;;;;6.90;3.70;;;;;;;13.57;82.90;94675.70;1705143;84;21534;-70
2022/09/17 00:51:57;;;;;;;5.15;3.62;;;;;;;13.58;82.42;94678.77;1705618;83;21023;-70
2022/09/17 00:54:25;;;;;;;4.33;3.02;;;;;;;13.55;82.58;94682.85;1705502;83;21001;-71
2022/09/17 00:56:52;;;;;;;5.92;3.77;;;;;;;13.55;82.40;94667.42;1705560;84;21562;-70
2022/09/17 00:59:21;;;;;;;6.03;2.92;;;;;;;13.56;82.36;94670.02;1705210;84;21040;-70
2022/09/17 01:01:49;;;;;;;13.68;3.77;;;;;;;13.54;82.28;94669.22;1705416;83;20956;-70
2022/09/17 01:04:19;;;;;;;6.50;3.22;;;;;;;13.50;83.21;94668.09;1705197;84;21032;-70
2022/09/17 01:07:09;;;;;;;3.50;3.15;;;;;;;13.49;82.32;94674.34;1705550;84;20996;-70
2022/09/17 01:10:06;;;;;;;5.37;3.30;;;;;;;13.49;82.32;94674.34;1685207;84;21094;-70
2022/09/17 01:13:16;;;;;;;4.15;2.80;;;;;;;13.52;82.65;94675.52;1705607;84;20996;-70
2022/09/17 01:16:03;;;;;;;6.17;3.02;;;;;;;13.49;82.42;94663.73;1705337;83;21551;-70
2022/09/17 01:19:04;;;;;;;8.13;3.40;;;;;;;13.50;82.74;94666.77;1705563;83;21040;-70
2022/09/17 01:22:04;;;;;;;4.45;3.02;;;;;;;13.52;83.00;94658.29;1705674;83;20993;-70
2022/09/17 01:24:54;;;;;;;8.80;4.37;;;;;;;13.56;82.33;94670.48;1705138;84;21111;-70
2022/09/17 01:27:35;;;;;;;6.67;2.90;;;;;;;13.45;81.93;94652.39;1705558;84;21075;-71
2022/09/17 01:30:34;;;;;;;5.72;3.55;;;;;;;13.45;81.93;94652.39;1702457;84;21080;-70
2022/09/17 01:33:14;;;;;;;7.03;2.98;;;;;;;13.39;81.88;94650.03;1685507;84;21131;-70
2022/09/17 01:36:02;;;;;;;5.83;2.72;;;;;;;13.32;81.76;94643.28;1711930;83;21506;-70
2022/09/17 01:38:37;;;;;;;6.47;2.85;;;;;;;13.35;82.20;94647.11;1713022;83;21036;-70
2022/09/17 01:41:12;;;;;;;3.65;2.90;;;;;;;13.35;82.20;94647.11;1713006;84;21036;-69
2022/09/17 01:44:08;;;;;;;6.65;3.05;;;;;;;13.32;82.24;94644.61;1713135;83;21067;-70
2022/09/17 01:46:39;;;;;;;5.58;2.83;;;;;;;13.31;82.71;94649.52;1713230;84;21063;-70
2022/09/17 01:49:09;;;;;;;3.77;2.77;;;;;;;13.39;82.92;94660.16;1712965;84;21552;-70
2022/09/17 01:51:42;;;;;;;3.25;2.85;;;;;;;13.44;82.74;94660.43;1713039;84;21811;-70
2022/09/17 01:54:23;;;;;;;3.35;2.27;;;;;;;13.39;82.55;94657.52;1713301;83;21059;-70
2022/09/17 01:57:01;;;;;;;6.45;3.25;;;;;;;13.48;83.01;94654.93;1713308;84;21546;-70
2022/09/17 02:00:02;;;;;;;5.53;2.65;;;;;;;13.45;82.87;94645.77;1712861;83;21028;-70
2022/09/17 02:02:48;;;;;;;5.92;3.80;;;;;;;13.50;82.73;94641.59;1712032;84;21490;-70
2022/09/17 02:05:34;;;;;;;5.90;2.98;;;;;;;13.58;82.65;94634.14;1685245;84;20999;-70
2022/09/17 02:08:16;;;;;;;7.30;3.08;;;;;;;13.61;82.74;94636.21;1713120;84;21055;-70
2022/09/17 02:10:47;;;;;;;4.53;3.42;;;;;;;13.62;82.20;94637.06;1712859;83;21000;-70
2022/09/17 02:13:25;;;;;;;5.60;2.87;;;;;;;13.62;81.77;94638.39;1712933;84;21043;-70
2022/09/17 02:16:00;;;;;;;6.85;2.70;;;;;;;13.57;81.79;94625.81;1713366;84;21470;-70
2022/09/17 02:18:38;;;;;;;5.83;3.10;;;;;;;13.49;82.14;94612.91;1713018;84;21212;-70
2022/09/17 02:21:22;;;;;;;5.40;3.00;;;;;;;13.41;82.14;94607.11;1713394;84;21024;-69
2022/09/17 02:24:06;;;;;;;6.75;2.45;;;;;;;13.42;82.57;94616.77;1713053;84;21103;-70
2022/09/17 02:26:38;;;;;;;5.22;2.45;;;;;;;13.35;82.46;94608.70;1713307;84;21095;-70
2022/09/17 02:29:12;;;;;;;4.58;2.40;;;;;;;13.40;82.96;94622.13;1712990;84;21582;-70
2022/09/17 02:31:41;;;;;;;5.00;2.55;;;;;;;13.40;82.96;94622.13;1713286;84;21497;-71
2022/09/17 02:34:09;;;;;;;2.92;2.40;;;;;;;13.50;82.66;94637.62;1714014;83;21482;-71
2022/09/17 02:36:36;;;;;;;6.25;2.52;;;;;;;13.47;82.62;94633.79;1726168;83;21385;-71
2022/09/17 02:39:04;;;;;;;3.77;2.00;;;;;;;13.40;82.46;94630.07;1726060;83;21066;-71
2022/09/17 02:42:21;;;;;;;3.67;2.47;;;;;;;13.41;83.19;94607.97;1726225;83;21091;-72
2022/09/17 02:45:13;;;;;;;3.77;2.45;;;;;;;13.44;82.62;94598.16;1726274;83;21513;-71
2022/09/17 02:48:13;;;;;;;5.33;2.27;;;;;;;13.44;82.62;94598.16;1725829;83;21074;-71
2022/09/17 02:50:54;;;;;;;4.55;2.65;;;;;;;13.37;82.50;94591.80;1726406;83;21027;-71
2022/09/17 02:53:37;;;;;;;4.30;2.52;;;;;;;13.17;82.58;94583.86;1718058;83;21042;-71
2022/09/17 02:56:38;;;;;;;2.80;2.33;;;;;;;13.21;83.23;94588.95;1726402;83;21520;-71
2022/09/17 02:59:25;;;;;;;6.33;2.60;;;;;;;13.21;83.22;94604.00;1726368;83;21553;-70
2022/09/17 03:02:06;;;;;;;2.65;2.20;;;;;;;13.27;83.20;94597.12;1725018;83;21095;-71
2022/09/17 03:04:34;;;;;;;5.40;2.35;;;;;;;13.31;82.96;94602.69;1726448;83;21058;-71
2022/09/17 03:07:07;;;;;;;6.08;2.50;;;;;;;13.24;82.84;94609.16;1726493;83;21018;-71
2022/09/17 03:09:35;;;;;;;6.08;2.80;;;;;;;13.15;83.13;94624.11;1726301;83;20982;-71
2022/09/17 03:12:03;;;;;;;9.25;2.92;;;;;;;13.12;83.23;94627.77;1726245;83;21003;-71
2022/09/17 03:14:30;;;;;;;2.98;2.40;;;;;;;13.14;83.92;94629.88;1726345;83;21454;-71
2022/09/17 03:16:57;;;;;;;6.42;2.50;;;;;;;13.26;84.29;94629.81;1725963;83;21078;-71
2022/09/17 03:19:24;;;;;;;7.58;3.00;;;;;;;13.38;84.04;94616.50;1726690;83;21418;-71
2022/09/17 03:21:51;;;;;;;6.33;2.52;;;;;;;13.38;84.04;94616.50;1726410;83;21015;-71
2022/09/17 03:24:17;;;;;;;6.30;2.65;;;;;;;13.44;83.92;94612.27;1726265;83;21027;-71
2022/09/17 03:26:46;;;;;;;6.05;2.92;;;;;;;13.30;83.51;94623.94;1726580;83;21015;-71
2022/09/17 03:29:13;;;;;;;6.00;3.08;;;;;;;13.30;83.51;94623.94;1726356;83;21048;-71
2022/09/17 03:31:40;;;;;;;5.22;3.00;;;;;;;13.20;83.40;94620.80;1725908;83;21580;-71
2022/09/17 03:34:07;;;;;;;4.53;2.85;;;;;;;13.13;83.98;94618.91;1726468;83;21042;-71
2022/09/17 03:36:34;;;;;;;4.47;2.80;;;;;;;13.10;84.50;94630.97;1713757;83;21561;-71
2022/09/17 03:39:01;;;;;;;9.08;3.33;;;;;;;13.11;84.71;94640.63;1713180;83;21056;-70
2022/09/17 03:41:28;;;;;;;6.70;3.22;;;;;;;13.06;84.14;94640.43;1713122;84;20992;-70
2022/09/17 03:43:54;;;;;;;6.45;4.15;;;;;;;12.98;84.23;94626.20;1713292;84;21015;-71
2022/09/17 03:46:21;;;;;;;6.90;4.05;;;;;;;12.96;84.58;94615.66;1713207;84;21098;-71
2022/09/17 03:48:48;;;;;;;9.60;5.03;;;;;;;13.01;85.13;94601.38;1713291;84;21068;-71
2022/09/17 03:51:15;;;;;;;8.68;4.75;;;;;;;13.06;84.49;94617.45;1713252;83;21032;-71
2022/09/17 03:53:41;;;;;;;8.33;5.17;;;;;;;12.92;84.84;94621.16;1713315;83;21509;-71
2022/09/17 03:56:08;;;;;;;8.20;4.40;;;;;;;12.92;84.84;94621.16;1713081;84;21008;-71
2022/09/17 03:58:35;;;;;;;5.97;3.75;;;;;;;12.86;84.58;94617.46;1713072;84;21019;-71
2022/09/17 04:01:03;;;;;;;5.42;3.10;;;;;;;12.90;84.79;94620.35;1713084;83;21085;-70
2022/09/17 04:03:31;;;;;;;6.45;3.25;;;;;;;12.94;84.54;94619.30;1713346;84;21027;-71
2022/09/17 04:05:58;;;;;;;6.28;3.33;;;;;;;12.91;83.95;94615.00;1712994;84;21035;-71
2022/09/17 04:08:25;;;;;;;4.95;3.50;;;;;;;12.79;84.81;94606.27;1713108;83;21019;-71
2022/09/17 04:10:52;;;;;;;7.05;3.08;;;;;;;12.79;84.81;94606.27;1713035;84;21036;-70
2022/09/17 04:13:19;;;;;;;5.10;3.15;;;;;;;12.92;85.31;94616.71;1713481;84;21509;-70
2022/09/17 04:15:47;;;;;;;5.47;3.10;;;;;;;12.97;85.07;94617.84;1713338;83;21036;-71
2022/09/17 04:18:14;;;;;;;5.47;2.65;;;;;;;13.01;84.81;94613.29;1713496;83;21071;-70
2022/09/17 04:20:42;;;;;;;5.30;2.85;;;;;;;12.95;84.18;94627.20;1713229;84;21032;-71
2022/09/17 04:23:11;;;;;;;4.50;2.90;;;;;;;12.94;84.54;94632.08;1713456;84;21024;-71
2022/09/17 04:25:38;;;;;;;5.05;3.10;;;;;;;12.93;84.50;94614.48;1713272;83;21551;-71
2022/09/17 04:28:05;;;;;;;4.33;2.95;;;;;;;12.94;84.79;94611.36;1713450;83;20991;-71
2022/09/17 04:30:32;;;;;;;5.80;2.95;;;;;;;12.97;84.77;94609.90;1713357;83;21533;-71
2022/09/17 04:32:58;;;;;;;4.20;2.83;;;;;;;13.03;84.68;94608.33;1712971;84;21035;-71
2022/09/17 04:35:25;;;;;;;5.42;3.08;;;;;;;12.92;83.64;94601.30;1718007;83;21537;-71
2022/09/17 04:37:55;;;;;;;4.55;2.83;;;;;;;12.91;84.67;94611.50;1726278;83;21035;-71
2022/09/17 04:40:23;;;;;;;6.37;2.70;;;;;;;12.89;83.86;94616.85;1726303;83;21066;-71
2022/09/17 04:42:55;;;;;;;5.65;3.22;;;;;;;12.89;84.00;94606.73;1726456;83;21007;-71
2022/09/17 04:45:22;;;;;;;4.28;3.83;;;;;;;12.88;84.58;94608.52;1726151;83;21035;-71
2022/09/17 04:47:52;;;;;;;8.60;3.33;;;;;;;12.95;85.01;94606.02;1726217;83;21514;-71
2022/09/17 04:50:19;;;;;;;5.55;2.70;;;;;;;12.99;84.87;94591.69;1726239;83;21118;-71
2022/09/17 04:52:47;;;;;;;6.85;2.58;;;;;;;13.04;84.41;94586.67;1726140;83;21034;-71
2022/09/17 04:55:15;;;;;;;3.08;2.00;;;;;;;13.03;84.14;94591.11;1726459;83;20987;-71
2022/09/17 04:57:47;;;;;;;4.60;2.00;;;;;;;13.02;83.90;94593.81;1726343;83;21070;-71
2022/09/17 05:00:16;;;;;;;3.02;1.90;;;;;;;13.05;84.09;94597.17;1726216;83;21302;-71
2022/09/17 05:02:46;;;;;;;4.37;2.40;;;;;;;13.04;83.54;94607.38;1726394;83;21514;-71
2022/09/17 05:05:15;;;;;;;5.33;3.77;;;;;;;13.01;83.53;94617.27;1726505;83;21473;-71
2022/09/17 05:07:42;;;;;;;4.45;2.83;;;;;;;12.90;83.54;94621.24;1726324;83;21042;-71
2022/09/17 05:10:12;;;;;;;5.25;2.45;;;;;;;12.88;84.06;94619.12;1726163;83;21083;-71
2022/09/17 05:12:38;;;;;;;5.33;1.92;;;;;;;12.89;84.68;94631.88;1726636;83;21441;-71
2022/09/17 05:15:07;;;;;;;3.42;2.40;;;;;;;12.84;84.04;94615.34;1726518;83;21019;-71
2022/09/17 05:17:33;;;;;;;3.70;2.42;;;;;;;12.86;84.69;94609.52;1726365;83;21031;-71
2022/09/17 05:20:00;;;;;;;2.72;2.40;;;;;;;13.00;84.74;94617.70;1726500;83;21544;-71
2022/09/17 05:22:27;;;;;;;5.30;2.58;;;;;;;13.00;84.74;94617.70;1726282;83;21489;-71
2022/09/17 05:24:54;;;;;;;3.62;2.85;;;;;;;12.98;83.79;94615.14;1726564;83;21025;-70
2022/09/17 05:27:21;;;;;;;5.33;2.83;;;;;;;12.85;84.11;94611.75;1726414;83;21485;-71
2022/09/17 05:29:48;;;;;;;6.83;3.00;;;;;;;12.87;85.00;94601.96;1726156;83;21565;-71
2022/09/17 05:32:15;;;;;;;3.70;2.92;;;;;;;12.96;85.23;94605.08;1726342;83;21019;-71
2022/09/17 05:34:42;;;;;;;4.00;2.90;;;;;;;13.05;85.25;94607.77;1726107;83;21031;-71
2022/09/17 05:37:10;;;;;;;5.55;3.02;;;;;;;13.07;84.54;94609.03;1713508;83;21028;-71
2022/09/17 05:39:37;;;;;;;4.87;3.08;;;;;;;12.99;84.30;94598.31;1713067;84;21087;-71
2022/09/17 05:42:05;;;;;;;3.83;3.40;;;;;;;13.05;84.74;94595.84;1713069;83;21503;-71
2022/09/17 05:44:31;;;;;;;4.30;2.87;;;;;;;13.11;84.98;94592.09;1713337;83;21021;-71
2022/09/17 05:46:58;;;;;;;6.55;4.58;;;;;;;13.07;84.14;94598.44;1713501;84;21055;-71
2022/09/17 05:49:25;;;;;;;10.58;5.95;;;;;;;12.99;83.98;94600.11;1713245;84;21040;-71
2022/09/17 05:51:51;;;;;;;10.43;6.12;;;;;;;12.91;84.30;94601.77;1713012;84;21107;-71
2022/09/17 05:54:18;;;;;;;7.10;5.03;;;;;;;12.93;84.64;94593.30;1713005;84;21044;-71
2022/09/17 05:56:45;;;;;;;8.65;5.05;;;;;;;12.94;84.24;94599.45;1713151;84;21510;-71
2022/09/17 05:59:11;;;;;;;5.67;3.40;;;;;;;12.97;84.19;94597.52;1713637;83;21031;-71
2022/09/17 06:01:38;;;;;;;4.50;3.02;;;;;;;13.00;84.40;94603.14;1712995;84;21119;-71
2022/09/17 06:04:04;;;;;;;5.20;2.90;;;;;;;13.05;84.38;94596.32;1713124;83;21027;-71
2022/09/17 06:06:31;;;;;;;4.83;2.90;;;;;;;13.09;84.50;94599.24;1713140;83;21043;-71
2022/09/17 06:09:01;;;;;;;5.10;2.50;;;;;;;13.11;84.65;94599.57;1712961;84;21027;-71
2022/09/17 06:11:28;;;;;;;4.53;1.98;;;;;;;13.14;84.60;94598.10;1713549;84;21035;-71
2022/09/17 06:13:55;;;;;;;6.97;2.27;;;;;;;13.12;83.89;94590.69;1713142;84;21104;-71
2022/09/17 06:16:23;;;;;;;5.03;2.40;;;;;;;13.07;84.09;94582.55;1713410;83;21047;-71
2022/09/17 06:18:51;;;;;;;5.90;2.87;;;;;;;13.10;84.31;94582.41;1712984;84;21032;-71
2022/09/17 06:21:20;;;;;;;3.50;2.50;;;;;;;13.08;84.23;94578.97;1713402;84;21003;-71
2022/09/17 06:23:50;;;;;;;3.27;2.20;;;;;;;13.10;84.41;94580.65;1713011;83;21070;-71
2022/09/17 06:26:17;;;;;;;2.87;2.17;;;;;;;13.14;83.87;94576.06;1713098;84;21055;-71
2022/09/17 06:28:44;;;;;;;3.87;2.12;;;;;;;13.12;83.70;94573.47;1712926;84;21533;-71
2022/09/17 06:31:13;;;;;;;3.42;2.95;;;;;;;13.12;83.42;94579.23;1713365;83;21027;-71
2022/09/17 06:33:40;;;;;;;4.67;2.72;;;;;;;13.12;83.42;94579.23;1713153;83;20976;-71
2022/09/17 06:36:11;;;;;;;4.95;2.20;;;;;;;13.14;83.56;94580.89;1709914;83;21099;-71
2022/09/17 06:38:38;;;;;;;6.50;2.60;;;;;;;13.15;83.32;94587.03;1705297;84;21538;-71
2022/09/17 06:41:05;;;;;;;3.72;2.92;;;;;;;13.16;83.69;94579.50;1705356;83;21035;-71
2022/09/17 06:43:32;;;;;;;3.30;2.50;;;;;;;13.16;83.56;94572.88;1705142;84;21043;-71
2022/09/17 06:46:02;;;;;;;5.42;2.65;;;;;;;13.16;83.45;94575.06;1705200;84;21131;-71
2022/09/17 06:48:30;;;;;;;2.95;2.30;;;;;;;13.18;83.43;94583.80;1705276;83;21043;-71
2022/09/17 06:51:03;;;;;;;4.40;2.60;;;;;;;13.21;83.52;94578.84;1705550;84;21047;-71
2022/09/17 06:53:30;;;;;;;4.85;2.30;;;;;;;13.24;84.01;94576.04;1705484;83;21056;-71
2022/09/17 06:55:59;;;;;;;5.30;1.80;;;;;;;13.36;83.78;94579.97;1705377;83;21139;-70
2022/09/17 06:58:28;;;;;;;3.40;2.20;;;;;;;13.35;83.02;94578.23;1705403;83;21073;-71
2022/09/17 07:01:00;;;;;;;3.80;2.22;;;;;;;13.36;83.06;94573.34;1705197;84;21067;-71
2022/09/17 07:03:28;;;;;;;3.17;2.15;;;;;;;13.36;83.06;94573.34;1705502;84;21496;-71
2022/09/17 07:05:55;;;;;;;2.58;2.22;;;;;;;13.32;83.26;94575.72;1705447;83;21008;-71
2022/09/17 07:08:21;;;;;;;2.90;2.47;;;;;;;13.32;83.26;94558.50;1704896;84;21071;-71
2022/09/17 07:10:49;;;;;;;3.33;2.47;;;;;;;13.57;83.40;94576.78;1705378;83;21103;-71
2022/09/17 07:13:15;;;;;;;4.15;2.60;;;;;;;13.57;83.40;94576.78;1705520;84;21059;-71
2022/09/17 07:15:42;;;;;;;6.42;5.92;;;;;;;13.64;82.49;94575.57;1705448;84;21577;-71
2022/09/17 07:18:10;;;;;;;5.00;3.52;;;;;;;13.64;82.39;94572.92;1705235;83;21008;-71
2022/09/17 07:20:38;;;;;;;3.65;2.37;;;;;;;13.67;81.82;94571.44;1705121;83;21528;-71
2022/09/17 07:23:04;;;;;;;2.65;2.45;;;;;;;13.67;82.39;94567.94;1705519;84;20984;-71
2022/09/17 07:25:32;;;;;;;3.30;2.27;;;;;;;13.67;82.39;94567.94;1705388;83;21088;-71
2022/09/17 07:27:59;;;;;;;4.17;2.77;;;;;;;13.64;82.21;94564.97;1705227;84;21060;-71
2022/09/17 07:30:25;;;;;;;5.47;3.62;;;;;;;13.58;82.06;94564.80;1705666;83;21011;-71
2022/09/17 07:32:52;;;;;;;8.13;5.50;;;;;;;13.58;82.06;94564.80;1705095;84;21562;-71
2022/09/17 07:35:19;;;;;;;12.07;8.30;;;;;;;13.59;82.47;94565.17;1685305;84;21052;-71
2022/09/17 07:37:46;;;;;;;9.70;8.80;;;;;;;13.57;81.06;94572.33;1712986;83;21557;-71
2022/09/17 07:40:13;;;;;;;3.85;2.98;;;;;;;13.58;81.60;94572.75;1713382;83;21565;-71
2022/09/17 07:42:39;;;;;;;10.43;8.38;;;;;;;13.56;80.23;94565.80;1713410;83;21051;-71
2022/09/17 07:45:08;;;;;;;7.42;6.60;;;;;;;13.64;81.92;94562.31;1713567;83;21047;-71
2022/09/17 07:47:40;;;;;;;3.22;2.83;;;;;;;13.64;81.92;94562.31;1713260;84;20992;-70
2022/09/17 07:50:08;;;;;;;6.22;2.30;;;;;;;13.76;82.05;94554.27;1713063;83;20992;-71
2022/09/17 07:52:35;;;;;;;4.08;2.70;;;;;;;13.89;82.60;94556.70;1712894;84;21087;-71
2022/09/17 07:55:02;;;;;;;6.12;4.60;;;;;;;13.97;81.50;94558.99;1712353;84;21004;-71
2022/09/17 07:57:29;;;;;;;3.58;3.10;;;;;;;14.05;81.08;94563.45;1712719;84;21044;-71
2022/09/17 07:59:55;;;;;;;6.28;2.70;;;;;;;14.15;80.86;94562.54;1713003;83;21073;-71
2022/09/17 08:02:22;;;;;;;4.60;1.87;;;;;;;14.21;80.99;94546.30;1712381;84;21154;-71
2022/09/17 08:04:49;;;;;;;21.85;10.63;;;;;;;14.23;80.63;94543.11;1713190;83;21031;-71
2022/09/17 08:07:16;;;;;;;11.70;7.30;;;;;;;14.28;80.35;94539.77;1713300;84;21558;-71
2022/09/17 08:09:43;;;;;;;6.78;2.10;;;;;;;14.40;81.15;94527.69;1713321;83;20999;-71
2022/09/17 08:12:10;;;;;;;4.75;2.77;;;;;;;14.46;78.87;94523.38;1712565;84;21039;-71
2022/09/17 08:14:37;;;;;;;3.37;2.60;;;;;;;14.53;78.99;94524.82;1712749;83;21067;-71
2022/09/17 08:17:07;;;;;;;7.70;4.47;;;;;;;14.59;79.49;94529.84;1712395;84;21047;-71
2022/09/17 08:19:34;;;;;;;3.85;3.08;;;;;;;14.65;78.71;94520.69;1712693;83;21082;-71
2022/09/17 08:22:01;;;;;;;2.70;2.30;;;;;;;14.66;78.74;94528.55;1713117;84;21070;-71
2022/09/17 08:24:27;;;;;;;1.65;1.55;;;;;;;14.52;76.08;94531.05;1712807;84;21031;-71
2022/09/17 08:26:54;;;;;;;1.67;1.30;;;;;;;14.32;73.70;94532.53;1685059;84;21063;-71
2022/09/17 08:29:21;;;;;;;1.90;1.70;;;;;;;14.22;74.51;94545.39;1713269;84;21016;-71
2022/09/17 08:31:48;;;;;;;1.47;1.30;;;;;;;14.01;74.19;94545.52;1713135;84;21019;-71
2022/09/17 08:34:14;;;;;;;4.62;1.82;;;;;;;13.97;75.23;94548.38;1713428;84;20976;-71
2022/09/17 08:36:41;;;;;;;1.70;1.42;;;;;;;14.00;76.12;94540.27;1710347;83;21036;-71
2022/09/17 08:39:10;;;;;;;2.55;1.50;;;;;;;14.05;75.66;94530.30;1705367;84;21016;-71
2022/09/17 08:41:50;;;;;;;2.87;1.87;;;;;;;14.15;77.18;94516.11;1705630;83;21009;-70
2022/09/17 08:44:35;;;;;;;2.08;1.45;;;;;;;14.15;77.18;94516.11;1705437;84;21040;-71
2022/09/17 08:47:13;;;;;;;1.37;1.27;;;;;;;14.19;75.52;94513.71;1705353;83;21471;-71
2022/09/17 08:49:53;;;;;;;2.58;1.70;;;;;;;14.28;76.15;94514.56;1705586;84;21000;-71
2022/09/17 08:52:53;;;;;;;1.70;1.40;;;;;;;14.38;76.92;94513.63;1705165;84;21079;-71
2022/09/17 08:55:33;;;;;;;3.33;2.22;;;;;;;14.44;75.35;94513.34;1705612;83;21022;-71
2022/09/17 08:58:21;;;;;;;3.02;2.10;;;;;;;14.52;76.02;94504.50;1705244;84;21004;-71
2022/09/17 09:01:17;;;;;;;2.42;1.90;;;;;;;14.58;76.33;94512.64;1705026;84;21108;-71
2022/09/17 09:04:23;;;;;;;1.80;1.50;;;;;;;14.55;77.05;94512.81;1705392;84;21072;-71
2022/09/17 09:07:04;;;;;;;2.00;1.72;;;;;;;14.52;76.07;94509.81;1690941;85;21023;-71
2022/09/17 09:09:40;;;;;;;3.15;2.30;;;;;;;14.61;77.36;94500.06;1702187;84;21502;-71
2022/09/17 09:12:26;;;;;;;5.83;3.80;;;;;;;14.71;77.36;94495.14;1705402;83;21092;-71
2022/09/17 09:15:20;;;;;;;4.90;2.50;;;;;;;14.80;77.42;94486.70;1705593;84;21513;-71
2022/09/17 09:17:49;;;;;;;2.55;2.20;;;;;;;14.92;76.93;94491.36;1705358;84;21099;-71
2022/09/17 09:20:38;;;;;;;2.20;1.90;;;;;;;15.09;77.61;94493.13;1704959;83;21541;-71
2022/09/17 09:23:16;;;;;;;2.40;1.60;;;;;;;15.26;77.38;94486.88;1705453;83;21020;-71
2022/09/17 09:25:51;;;;;;;1.82;1.52;;;;;;;15.44;76.04;94500.10;1691535;84;21028;-71
2022/09/17 09:29:03;;;;;;;2.27;1.60;;;;;;;15.57;75.71;94498.03;1705220;84;21059;-71
2022/09/17 09:32:01;;;;;;;2.33;1.85;;;;;;;15.63;75.98;94492.83;1702615;84;21036;-71
2022/09/17 09:34:31;;;;;;;2.75;2.10;;;;;;;15.75;75.03;94500.64;1704754;84;21083;-71
2022/09/17 09:37:19;;;;;;;2.22;1.82;;;;;;;15.82;73.88;94501.12;1708460;83;21039;-71
2022/09/17 09:39:49;;;;;;;3.52;1.85;;;;;;;15.77;72.51;94502.71;1713412;83;21027;-71
2022/09/17 09:42:35;;;;;;;3.50;2.00;;;;;;;15.69;73.18;94496.50;1713388;83;21064;-71
2022/09/17 09:45:19;;;;;;;3.05;2.33;;;;;;;15.75;73.56;94500.64;1713184;83;21016;-71
2022/09/17 09:47:54;;;;;;;3.52;2.10;;;;;;;15.77;73.17;94502.27;1712853;83;21095;-71
2022/09/17 09:50:45;;;;;;;5.17;2.62;;;;;;;15.85;73.84;94512.47;1713282;84;20989;-71
2022/09/17 09:53:23;;;;;;;5.58;1.98;;;;;;;15.83;73.03;94511.70;1692283;84;21047;-71
2022/09/17 09:56:18;;;;;;;2.90;2.15;;;;;;;15.71;72.87;94513.23;1710805;84;21004;-71
2022/09/17 09:58:45;;;;;;;3.87;3.00;;;;;;;15.70;73.13;94517.30;1694204;84;21016;-70
2022/09/17 10:01:16;;;;;;;3.55;2.42;;;;;;;15.76;73.65;94520.95;1713004;84;21043;-71
2022/09/17 10:03:45;;;;;;;3.05;2.20;;;;;;;15.82;73.41;94513.09;1712750;84;21039;-71
2022/09/17 10:06:14;;;;;;;3.17;2.35;;;;;;;15.89;73.27;94506.02;1713326;84;21031;-71
2022/09/17 10:08:57;;;;;;;4.05;2.90;;;;;;;15.98;73.11;94500.18;1712813;84;21020;-71
2022/09/17 10:11:32;;;;;;;2.25;1.82;;;;;;;16.10;73.52;94493.75;1712881;83;21114;-70
2022/09/17 10:14:24;;;;;;;2.62;1.95;;;;;;;16.17;72.89;94491.98;1712285;84;21090;-70
2022/09/17 10:17:23;;;;;;;3.00;2.20;;;;;;;16.22;72.67;94489.05;1713108;83;21078;-70
2022/09/17 10:20:09;;;;;;;2.40;1.75;;;;;;;16.26;71.84;94491.94;1712348;84;21091;-70
2022/09/17 10:22:44;;;;;;;3.02;2.08;;;;;;;16.31;71.50;94487.20;1713184;84;21028;-70
2022/09/17 10:25:33;;;;;;;2.20;1.90;;;;;;;16.33;71.34;94484.43;1712979;84;21016;-70
2022/09/17 10:28:08;;;;;;;2.20;1.70;;;;;;;16.37;70.77;94480.65;1711686;84;21015;-70
2022/09/17 10:30:34;;;;;;;1.80;1.65;;;;;;;16.29;68.67;94482.91;1710694;84;21067;-70
2022/09/17 10:33:25;;;;;;;3.75;2.00;;;;;;;16.24;70.35;94479.19;1713475;84;21059;-70
2022/09/17 10:36:03;;;;;;;3.30;2.20;;;;;;;16.39;71.17;94472.95;1712702;83;21573;-69
2022/09/17 10:38:44;;;;;;;2.17;1.80;;;;;;;16.46;70.20;94488.11;1712891;84;21044;-70
2022/09/17 10:41:16;;;;;;;2.80;2.17;;;;;;;16.49;69.96;94493.72;1713370;83;21055;-70
2022/09/17 10:43:44;;;;;;;3.12;2.02;;;;;;;16.46;69.53;94497.91;1713136;84;21047;-70
2022/09/17 10:46:18;;;;;;;2.27;2.05;;;;;;;16.51;69.91;94494.02;1713222;84;21513;-70
2022/09/17 10:49:10;;;;;;;4.87;2.42;;;;;;;16.49;69.45;94497.71;1713091;83;21054;-70
2022/09/17 10:51:38;;;;;;;2.92;2.02;;;;;;;16.44;69.43;94492.17;1709850;84;21028;-70
2022/09/17 10:54:22;;;;;;;2.50;2.00;;;;;;;16.42;69.59;94486.55;1713401;84;21000;-70
2022/09/17 10:56:54;;;;;;;2.58;1.90;;;;;;;16.38;69.52;94485.89;1712243;84;21097;-70
2022/09/17 10:59:37;;;;;;;4.35;3.17;;;;;;;16.42;70.43;94483.89;1712503;83;21135;-70
2022/09/17 11:02:32;;;;;;;3.08;2.33;;;;;;;16.46;70.70;94469.95;1712992;83;21056;-70
2022/09/17 11:05:42;;;;;;;2.45;2.25;;;;;;;16.48;70.16;94480.89;1712804;83;21026;-70
2022/09/17 11:08:23;;;;;;;3.12;2.58;;;;;;;16.46;69.92;94485.92;1701265;84;21088;-70
2022/09/17 11:11:07;;;;;;;5.55;2.95;;;;;;;16.37;69.41;94483.31;1712546;84;21513;-70
2022/09/17 11:14:13;;;;;;;2.20;1.95;;;;;;;16.25;69.11;94492.02;1712040;83;21036;-69
2022/09/17 11:16:57;;;;;;;3.60;2.77;;;;;;;16.10;68.47;94488.43;1713057;84;21616;-69
2022/09/17 11:20:03;;;;;;;3.17;2.33;;;;;;;15.97;69.17;94491.80;1711981;84;21005;-70
2022/09/17 11:23:28;;;;;;;2.77;2.40;;;;;;;15.92;69.92;94489.87;1713411;84;21012;-70
2022/09/17 11:25:59;;;;;;;4.47;3.83;;;;;;;15.89;70.16;94487.39;1712494;83;21553;-70
2022/09/17 11:29:20;;;;;;;4.60;2.80;;;;;;;15.87;70.71;94489.28;1684429;84;20992;-70
2022/09/17 11:32:10;;;;;;;3.08;2.62;;;;;;;15.89;71.04;94486.06;1712746;84;21107;-70
2022/09/17 11:34:52;;;;;;;3.05;2.75;;;;;;;15.96;71.64;94490.09;1681211;84;21031;-70
2022/09/17 11:37:36;;;;;;;3.47;3.10;;;;;;;16.07;71.68;94483.30;1713031;84;21517;-70
2022/09/17 11:40:27;;;;;;;5.70;2.98;;;;;;;16.21;71.68;94480.22;1712942;83;21562;-70
2022/09/17 11:43:00;;;;;;;3.83;2.80;;;;;;;16.40;72.35;94477.80;1705207;84;21052;-70
2022/09/17 11:45:32;;;;;;;2.20;2.00;;;;;;;16.63;71.97;94472.43;1713421;84;21004;-70
2022/09/17 11:48:19;;;;;;;3.25;2.20;;;;;;;16.78;70.12;94474.67;1712312;84;21513;-70
2022/09/17 11:50:54;;;;;;;3.75;2.12;;;;;;;16.85;69.79;94479.54;1713128;84;21546;-70
2022/09/17 11:53:42;;;;;;;1.80;1.70;;;;;;;16.99;69.51;94471.20;1713741;83;21035;-70
2022/09/17 11:56:17;;;;;;;3.08;1.47;;;;;;;17.08;67.28;94474.16;1713417;83;21011;-70
2022/09/17 11:58:58;;;;;;;3.72;2.25;;;;;;;17.09;65.81;94469.19;1712728;84;21533;-70
2022/09/17 12:01:50;;;;;;;3.45;2.25;;;;;;;17.20;67.04;94466.33;1713196;84;21024;-70
2022/09/17 12:04:43;;;;;;;2.20;2.00;;;;;;;17.33;65.74;94459.75;1713041;84;21046;-70
2022/09/17 12:07:38;;;;;;;2.72;1.80;;;;;;;17.57;66.11;94458.20;1713387;84;21012;-70
2022/09/17 12:10:46;;;;;;;2.33;2.08;;;;;;;17.70;65.71;94450.27;1713138;84;21498;-70